sensor_id;sensor_type;location;lat;lon;timestamp;P1;durP1;ratioP1;P2;durP2;ratioP2
20251;SDS011;10284;58.364;15.550;2023-05-14T00:01:12;4.90;;;3.80;;
20251;SDS011;10284;58.364;15.550;2023-05-14T00:03:38;7.45;;;4.30;;
20251;SDS011;10284;58.364;15.550;2023-05-14T00:06:05;6.68;;;3.97;;
20251;SDS011;10284;58.364;15.550;2023-05-14T00:08:31;6.18;;;4.13;;
20251;SDS011;10284;58.364;15.550;2023-05-14T00:10:57;5.93;;;3.92;;
20251;SDS011;10284;58.364;15.550;2023-05-14T00:13:23;4.28;;;3.85;;
20251;SDS011;10284;58.364;15.550;2023-05-14T00:15:49;7.88;;;4.40;;
20251;SDS011;10284;58.364;15.550;2023-05-14T00:18:14;5.50;;;4.15;;
20251;SDS011;10284;58.364;15.550;2023-05-14T00:20:40;6.40;;;3.70;;
20251;SDS011;10284;58.364;15.550;2023-05-14T00:23:05;7.95;;;3.83;;
20251;SDS011;10284;58.364;15.550;2023-05-14T00:25:31;5.72;;;3.75;;
20251;SDS011;10284;58.364;15.550;2023-05-14T00:27:56;5.25;;;4.03;;
20251;SDS011;10284;58.364;15.550;2023-05-14T00:30:22;10.50;;;3.45;;
20251;SDS011;10284;58.364;15.550;2023-05-14T00:32:47;6.22;;;3.88;;
20251;SDS011;10284;58.364;15.550;2023-05-14T00:35:12;4.82;;;4.05;;
20251;SDS011;10284;58.364;15.550;2023-05-14T00:37:38;6.10;;;3.85;;
20251;SDS011;10284;58.364;15.550;2023-05-14T00:40:03;5.40;;;3.65;;
20251;SDS011;10284;58.364;15.550;2023-05-14T00:42:30;4.30;;;3.88;;
20251;SDS011;10284;58.364;15.550;2023-05-14T00:44:56;4.53;;;3.90;;
20251;SDS011;10284;58.364;15.550;2023-05-14T00:47:21;4.60;;;3.55;;
20251;SDS011;10284;58.364;15.550;2023-05-14T00:49:47;6.13;;;3.97;;
20251;SDS011;10284;58.364;15.550;2023-05-14T00:52:12;6.20;;;4.00;;
20251;SDS011;10284;58.364;15.550;2023-05-14T00:54:38;6.53;;;4.07;;
20251;SDS011;10284;58.364;15.550;2023-05-14T00:57:04;5.53;;;3.53;;
20251;SDS011;10284;58.364;15.550;2023-05-14T00:59:30;6.10;;;3.72;;
20251;SDS011;10284;58.364;15.550;2023-05-14T01:01:55;4.38;;;3.33;;
20251;SDS011;10284;58.364;15.550;2023-05-14T01:04:21;4.10;;;3.70;;
20251;SDS011;10284;58.364;15.550;2023-05-14T01:09:25;7.75;;;3.95;;
20251;SDS011;10284;58.364;15.550;2023-05-14T01:11:59;7.80;;;4.10;;
20251;SDS011;10284;58.364;15.550;2023-05-14T01:17:08;4.57;;;3.50;;
20251;SDS011;10284;58.364;15.550;2023-05-14T01:19:39;4.30;;;3.78;;
20251;SDS011;10284;58.364;15.550;2023-05-14T01:22:06;5.32;;;3.78;;
20251;SDS011;10284;58.364;15.550;2023-05-14T01:24:32;5.32;;;3.80;;
20251;SDS011;10284;58.364;15.550;2023-05-14T01:27:04;6.68;;;3.92;;
20251;SDS011;10284;58.364;15.550;2023-05-14T01:29:30;4.60;;;3.80;;
20251;SDS011;10284;58.364;15.550;2023-05-14T01:31:58;4.63;;;3.72;;
20251;SDS011;10284;58.364;15.550;2023-05-14T01:34:24;7.85;;;4.30;;
20251;SDS011;10284;58.364;15.550;2023-05-14T01:36:52;6.07;;;3.90;;
20251;SDS011;10284;58.364;15.550;2023-05-14T01:39:20;5.32;;;4.00;;
20251;SDS011;10284;58.364;15.550;2023-05-14T01:41:45;4.13;;;3.70;;
20251;SDS011;10284;58.364;15.550;2023-05-14T01:44:11;5.40;;;4.00;;
20251;SDS011;10284;58.364;15.550;2023-05-14T01:46:36;8.20;;;3.97;;
20251;SDS011;10284;58.364;15.550;2023-05-14T01:49:02;6.57;;;3.95;;
20251;SDS011;10284;58.364;15.550;2023-05-14T01:51:28;5.90;;;4.45;;
20251;SDS011;10284;58.364;15.550;2023-05-14T01:53:53;6.60;;;4.20;;
20251;SDS011;10284;58.364;15.550;2023-05-14T01:56:19;6.18;;;4.75;;
20251;SDS011;10284;58.364;15.550;2023-05-14T01:58:47;5.50;;;4.47;;
20251;SDS011;10284;58.364;15.550;2023-05-14T02:01:12;5.55;;;4.22;;
20251;SDS011;10284;58.364;15.550;2023-05-14T02:03:38;7.03;;;4.68;;
20251;SDS011;10284;58.364;15.550;2023-05-14T02:06:03;7.82;;;4.75;;
20251;SDS011;10284;58.364;15.550;2023-05-14T02:08:29;6.25;;;4.88;;
20251;SDS011;10284;58.364;15.550;2023-05-14T02:10:54;4.97;;;4.50;;
20251;SDS011;10284;58.364;15.550;2023-05-14T02:13:20;5.80;;;4.70;;
20251;SDS011;10284;58.364;15.550;2023-05-14T02:15:45;5.13;;;4.55;;
20251;SDS011;10284;58.364;15.550;2023-05-14T02:18:11;6.75;;;4.78;;
20251;SDS011;10284;58.364;15.550;2023-05-14T02:20:36;5.80;;;5.20;;
20251;SDS011;10284;58.364;15.550;2023-05-14T02:23:02;7.57;;;4.57;;
20251;SDS011;10284;58.364;15.550;2023-05-14T02:25:27;6.07;;;4.45;;
20251;SDS011;10284;58.364;15.550;2023-05-14T02:27:53;7.18;;;4.88;;
20251;SDS011;10284;58.364;15.550;2023-05-14T02:30:20;8.13;;;5.05;;
20251;SDS011;10284;58.364;15.550;2023-05-14T02:32:45;5.15;;;4.65;;
20251;SDS011;10284;58.364;15.550;2023-05-14T02:35:11;4.97;;;4.25;;
20251;SDS011;10284;58.364;15.550;2023-05-14T02:37:36;5.45;;;4.93;;
20251;SDS011;10284;58.364;15.550;2023-05-14T02:40:02;9.35;;;5.30;;
20251;SDS011;10284;58.364;15.550;2023-05-14T02:42:28;6.05;;;5.10;;
20251;SDS011;10284;58.364;15.550;2023-05-14T02:44:53;7.38;;;5.10;;
20251;SDS011;10284;58.364;15.550;2023-05-14T02:47:19;7.93;;;5.63;;
20251;SDS011;10284;58.364;15.550;2023-05-14T02:49:44;12.38;;;4.90;;
20251;SDS011;10284;58.364;15.550;2023-05-14T02:52:10;6.28;;;5.13;;
20251;SDS011;10284;58.364;15.550;2023-05-14T02:54:35;7.78;;;4.70;;
20251;SDS011;10284;58.364;15.550;2023-05-14T02:57:00;8.73;;;5.20;;
20251;SDS011;10284;58.364;15.550;2023-05-14T02:59:26;6.70;;;4.95;;
20251;SDS011;10284;58.364;15.550;2023-05-14T03:01:51;5.68;;;4.80;;
20251;SDS011;10284;58.364;15.550;2023-05-14T03:04:17;7.60;;;4.90;;
20251;SDS011;10284;58.364;15.550;2023-05-14T03:06:42;8.90;;;5.18;;
20251;SDS011;10284;58.364;15.550;2023-05-14T03:09:08;6.65;;;4.97;;
20251;SDS011;10284;58.364;15.550;2023-05-14T03:11:33;10.73;;;6.00;;
20251;SDS011;10284;58.364;15.550;2023-05-14T03:13:59;7.00;;;5.47;;
20251;SDS011;10284;58.364;15.550;2023-05-14T03:16:25;8.35;;;5.55;;
20251;SDS011;10284;58.364;15.550;2023-05-14T03:18:50;6.20;;;5.38;;
20251;SDS011;10284;58.364;15.550;2023-05-14T03:21:16;10.75;;;5.28;;
20251;SDS011;10284;58.364;15.550;2023-05-14T03:23:41;9.75;;;5.20;;
20251;SDS011;10284;58.364;15.550;2023-05-14T03:26:07;12.23;;;5.55;;
20251;SDS011;10284;58.364;15.550;2023-05-14T03:28:32;8.77;;;5.43;;
20251;SDS011;10284;58.364;15.550;2023-05-14T03:30:57;6.88;;;4.90;;
20251;SDS011;10284;58.364;15.550;2023-05-14T03:33:23;8.73;;;5.55;;
20251;SDS011;10284;58.364;15.550;2023-05-14T03:35:49;7.35;;;4.82;;
20251;SDS011;10284;58.364;15.550;2023-05-14T03:38:15;10.73;;;5.60;;
20251;SDS011;10284;58.364;15.550;2023-05-14T03:40:40;6.95;;;5.05;;
20251;SDS011;10284;58.364;15.550;2023-05-14T03:43:06;6.20;;;5.00;;
20251;SDS011;10284;58.364;15.550;2023-05-14T03:45:31;10.05;;;4.88;;
20251;SDS011;10284;58.364;15.550;2023-05-14T03:47:57;8.68;;;5.40;;
20251;SDS011;10284;58.364;15.550;2023-05-14T03:50:22;6.00;;;4.68;;
20251;SDS011;10284;58.364;15.550;2023-05-14T03:52:50;6.05;;;4.65;;
20251;SDS011;10284;58.364;15.550;2023-05-14T03:55:17;6.80;;;5.20;;
20251;SDS011;10284;58.364;15.550;2023-05-14T03:57:43;7.65;;;4.75;;
20251;SDS011;10284;58.364;15.550;2023-05-14T04:00:09;8.55;;;4.80;;
20251;SDS011;10284;58.364;15.550;2023-05-14T04:02:35;5.97;;;5.38;;
20251;SDS011;10284;58.364;15.550;2023-05-14T04:05:00;6.10;;;4.88;;
20251;SDS011;10284;58.364;15.550;2023-05-14T04:07:26;5.32;;;4.82;;
20251;SDS011;10284;58.364;15.550;2023-05-14T04:09:51;8.35;;;5.10;;
20251;SDS011;10284;58.364;15.550;2023-05-14T04:12:16;9.60;;;5.05;;
20251;SDS011;10284;58.364;15.550;2023-05-14T04:14:42;9.40;;;4.97;;
20251;SDS011;10284;58.364;15.550;2023-05-14T04:17:07;6.18;;;5.00;;
20251;SDS011;10284;58.364;15.550;2023-05-14T04:19:32;7.15;;;5.15;;
20251;SDS011;10284;58.364;15.550;2023-05-14T04:21:58;8.02;;;5.30;;
20251;SDS011;10284;58.364;15.550;2023-05-14T04:24:23;8.10;;;4.90;;
20251;SDS011;10284;58.364;15.550;2023-05-14T04:26:49;6.60;;;5.00;;
20251;SDS011;10284;58.364;15.550;2023-05-14T04:29:14;7.95;;;5.15;;
20251;SDS011;10284;58.364;15.550;2023-05-14T04:31:42;6.88;;;5.03;;
20251;SDS011;10284;58.364;15.550;2023-05-14T04:34:08;7.25;;;4.95;;
20251;SDS011;10284;58.364;15.550;2023-05-14T04:36:33;10.00;;;5.32;;
20251;SDS011;10284;58.364;15.550;2023-05-14T04:38:59;6.32;;;4.70;;
20251;SDS011;10284;58.364;15.550;2023-05-14T04:41:25;10.05;;;5.50;;
20251;SDS011;10284;58.364;15.550;2023-05-14T04:43:50;8.65;;;4.95;;
20251;SDS011;10284;58.364;15.550;2023-05-14T04:46:19;10.30;;;5.22;;
20251;SDS011;10284;58.364;15.550;2023-05-14T04:48:45;9.55;;;4.80;;
20251;SDS011;10284;58.364;15.550;2023-05-14T04:51:10;7.47;;;4.78;;
20251;SDS011;10284;58.364;15.550;2023-05-14T04:53:36;7.18;;;4.70;;
20251;SDS011;10284;58.364;15.550;2023-05-14T04:56:01;8.55;;;4.80;;
20251;SDS011;10284;58.364;15.550;2023-05-14T04:58:27;4.90;;;4.43;;
20251;SDS011;10284;58.364;15.550;2023-05-14T05:00:53;4.65;;;4.25;;
20251;SDS011;10284;58.364;15.550;2023-05-14T05:03:18;5.43;;;4.90;;
20251;SDS011;10284;58.364;15.550;2023-05-14T05:05:44;5.65;;;4.80;;
20251;SDS011;10284;58.364;15.550;2023-05-14T05:08:09;5.93;;;4.35;;
20251;SDS011;10284;58.364;15.550;2023-05-14T05:10:35;5.13;;;4.57;;
20251;SDS011;10284;58.364;15.550;2023-05-14T05:13:00;5.28;;;4.30;;
20251;SDS011;10284;58.364;15.550;2023-05-14T05:15:26;6.47;;;4.00;;
20251;SDS011;10284;58.364;15.550;2023-05-14T05:17:51;7.07;;;4.32;;
20251;SDS011;10284;58.364;15.550;2023-05-14T05:20:17;6.20;;;4.13;;
20251;SDS011;10284;58.364;15.550;2023-05-14T05:22:42;7.70;;;4.70;;
20251;SDS011;10284;58.364;15.550;2023-05-14T05:25:08;5.15;;;4.15;;
20251;SDS011;10284;58.364;15.550;2023-05-14T05:27:33;6.07;;;4.30;;
20251;SDS011;10284;58.364;15.550;2023-05-14T05:30:00;5.28;;;4.38;;
20251;SDS011;10284;58.364;15.550;2023-05-14T05:32:26;5.70;;;4.22;;
20251;SDS011;10284;58.364;15.550;2023-05-14T05:34:51;7.95;;;4.35;;
20251;SDS011;10284;58.364;15.550;2023-05-14T05:37:17;8.70;;;4.45;;
20251;SDS011;10284;58.364;15.550;2023-05-14T05:39:42;5.90;;;4.30;;
20251;SDS011;10284;58.364;15.550;2023-05-14T05:42:08;7.70;;;4.53;;
20251;SDS011;10284;58.364;15.550;2023-05-14T05:44:34;5.70;;;4.30;;
20251;SDS011;10284;58.364;15.550;2023-05-14T05:47:00;5.68;;;4.07;;
20251;SDS011;10284;58.364;15.550;2023-05-14T05:49:25;6.65;;;3.92;;
20251;SDS011;10284;58.364;15.550;2023-05-14T05:51:50;6.32;;;4.18;;
20251;SDS011;10284;58.364;15.550;2023-05-14T05:54:16;6.07;;;4.25;;
20251;SDS011;10284;58.364;15.550;2023-05-14T05:56:41;6.05;;;4.13;;
20251;SDS011;10284;58.364;15.550;2023-05-14T05:59:07;7.60;;;4.13;;
20251;SDS011;10284;58.364;15.550;2023-05-14T06:01:33;7.63;;;4.28;;
20251;SDS011;10284;58.364;15.550;2023-05-14T06:04:01;7.72;;;4.38;;
20251;SDS011;10284;58.364;15.550;2023-05-14T06:06:28;7.55;;;4.32;;
20251;SDS011;10284;58.364;15.550;2023-05-14T06:08:53;5.30;;;3.78;;
20251;SDS011;10284;58.364;15.550;2023-05-14T06:11:19;6.00;;;3.78;;
20251;SDS011;10284;58.364;15.550;2023-05-14T06:13:45;6.30;;;4.13;;
20251;SDS011;10284;58.364;15.550;2023-05-14T06:16:11;8.77;;;3.90;;
20251;SDS011;10284;58.364;15.550;2023-05-14T06:18:36;8.75;;;3.95;;
20251;SDS011;10284;58.364;15.550;2023-05-14T06:21:02;5.15;;;3.70;;
20251;SDS011;10284;58.364;15.550;2023-05-14T06:23:28;6.68;;;4.30;;
20251;SDS011;10284;58.364;15.550;2023-05-14T06:25:53;4.70;;;4.10;;
20251;SDS011;10284;58.364;15.550;2023-05-14T06:28:19;5.35;;;3.70;;
20251;SDS011;10284;58.364;15.550;2023-05-14T06:30:44;5.50;;;4.22;;
20251;SDS011;10284;58.364;15.550;2023-05-14T06:33:10;4.97;;;4.10;;
20251;SDS011;10284;58.364;15.550;2023-05-14T06:35:37;5.00;;;4.13;;
20251;SDS011;10284;58.364;15.550;2023-05-14T06:38:03;8.85;;;4.05;;
20251;SDS011;10284;58.364;15.550;2023-05-14T06:40:28;4.43;;;3.72;;
20251;SDS011;10284;58.364;15.550;2023-05-14T06:42:53;9.18;;;4.28;;
20251;SDS011;10284;58.364;15.550;2023-05-14T06:45:19;5.72;;;4.13;;
20251;SDS011;10284;58.364;15.550;2023-05-14T06:47:44;8.23;;;4.45;;
20251;SDS011;10284;58.364;15.550;2023-05-14T06:50:10;5.20;;;3.65;;
20251;SDS011;10284;58.364;15.550;2023-05-14T06:52:35;6.35;;;4.13;;
20251;SDS011;10284;58.364;15.550;2023-05-14T06:55:01;4.47;;;3.75;;
20251;SDS011;10284;58.364;15.550;2023-05-14T06:57:26;7.47;;;3.80;;
20251;SDS011;10284;58.364;15.550;2023-05-14T06:59:51;4.28;;;3.50;;
20251;SDS011;10284;58.364;15.550;2023-05-14T07:02:17;9.27;;;4.00;;
20251;SDS011;10284;58.364;15.550;2023-05-14T07:04:42;5.15;;;3.58;;
20251;SDS011;10284;58.364;15.550;2023-05-14T07:07:08;5.70;;;3.35;;
20251;SDS011;10284;58.364;15.550;2023-05-14T07:09:34;6.25;;;3.60;;
20251;SDS011;10284;58.364;15.550;2023-05-14T07:12:00;5.38;;;3.80;;
20251;SDS011;10284;58.364;15.550;2023-05-14T07:14:25;4.05;;;3.60;;
20251;SDS011;10284;58.364;15.550;2023-05-14T07:16:50;5.90;;;3.80;;
20251;SDS011;10284;58.364;15.550;2023-05-14T07:19:16;5.38;;;3.55;;
20251;SDS011;10284;58.364;15.550;2023-05-14T07:21:41;4.22;;;3.78;;
20251;SDS011;10284;58.364;15.550;2023-05-14T07:24:07;6.47;;;3.60;;
20251;SDS011;10284;58.364;15.550;2023-05-14T07:26:32;6.00;;;3.70;;
20251;SDS011;10284;58.364;15.550;2023-05-14T07:28:58;6.50;;;4.00;;
20251;SDS011;10284;58.364;15.550;2023-05-14T07:31:23;6.82;;;4.00;;
20251;SDS011;10284;58.364;15.550;2023-05-14T07:33:49;4.38;;;3.03;;
20251;SDS011;10284;58.364;15.550;2023-05-14T07:36:14;4.35;;;3.50;;
20251;SDS011;10284;58.364;15.550;2023-05-14T07:38:39;4.43;;;3.67;;
20251;SDS011;10284;58.364;15.550;2023-05-14T07:41:05;5.40;;;3.58;;
20251;SDS011;10284;58.364;15.550;2023-05-14T07:43:30;4.75;;;3.53;;
20251;SDS011;10284;58.364;15.550;2023-05-14T07:45:56;5.40;;;3.60;;
20251;SDS011;10284;58.364;15.550;2023-05-14T07:48:21;5.53;;;3.20;;
20251;SDS011;10284;58.364;15.550;2023-05-14T07:50:47;7.40;;;3.85;;
20251;SDS011;10284;58.364;15.550;2023-05-14T07:53:13;4.82;;;3.33;;
20251;SDS011;10284;58.364;15.550;2023-05-14T07:55:38;6.10;;;3.83;;
20251;SDS011;10284;58.364;15.550;2023-05-14T07:58:04;6.70;;;3.75;;
20251;SDS011;10284;58.364;15.550;2023-05-14T08:00:29;3.75;;;3.45;;
20251;SDS011;10284;58.364;15.550;2023-05-14T08:02:55;6.40;;;3.47;;
20251;SDS011;10284;58.364;15.550;2023-05-14T08:05:20;5.50;;;3.70;;
20251;SDS011;10284;58.364;15.550;2023-05-14T08:07:46;8.60;;;3.72;;
20251;SDS011;10284;58.364;15.550;2023-05-14T08:10:12;6.95;;;3.45;;
20251;SDS011;10284;58.364;15.550;2023-05-14T08:12:37;4.93;;;3.30;;
20251;SDS011;10284;58.364;15.550;2023-05-14T08:15:03;6.30;;;3.53;;
20251;SDS011;10284;58.364;15.550;2023-05-14T08:17:29;5.85;;;3.88;;
20251;SDS011;10284;58.364;15.550;2023-05-14T08:19:55;4.72;;;3.58;;
20251;SDS011;10284;58.364;15.550;2023-05-14T08:22:20;6.28;;;3.40;;
20251;SDS011;10284;58.364;15.550;2023-05-14T08:24:46;6.88;;;3.55;;
20251;SDS011;10284;58.364;15.550;2023-05-14T08:27:11;4.13;;;3.10;;
20251;SDS011;10284;58.364;15.550;2023-05-14T08:29:37;8.68;;;3.25;;
20251;SDS011;10284;58.364;15.550;2023-05-14T08:32:02;3.63;;;3.13;;
20251;SDS011;10284;58.364;15.550;2023-05-14T08:34:29;6.13;;;2.95;;
20251;SDS011;10284;58.364;15.550;2023-05-14T08:36:54;4.97;;;3.05;;
20251;SDS011;10284;58.364;15.550;2023-05-14T08:39:20;4.63;;;3.53;;
20251;SDS011;10284;58.364;15.550;2023-05-14T08:41:45;5.15;;;3.30;;
20251;SDS011;10284;58.364;15.550;2023-05-14T08:44:11;6.50;;;3.20;;
20251;SDS011;10284;58.364;15.550;2023-05-14T08:46:38;5.88;;;3.28;;
20251;SDS011;10284;58.364;15.550;2023-05-14T08:51:47;4.63;;;3.33;;
20251;SDS011;10284;58.364;15.550;2023-05-14T08:54:15;8.68;;;3.25;;
20251;SDS011;10284;58.364;15.550;2023-05-14T08:56:44;6.95;;;3.38;;
20251;SDS011;10284;58.364;15.550;2023-05-14T08:59:10;6.97;;;3.10;;
20251;SDS011;10284;58.364;15.550;2023-05-14T09:01:36;3.40;;;3.10;;
20251;SDS011;10284;58.364;15.550;2023-05-14T09:04:03;5.38;;;3.03;;
20251;SDS011;10284;58.364;15.550;2023-05-14T09:06:33;5.90;;;3.00;;
20251;SDS011;10284;58.364;15.550;2023-05-14T09:09:02;5.53;;;3.20;;
20251;SDS011;10284;58.364;15.550;2023-05-14T09:11:28;7.22;;;3.45;;
20251;SDS011;10284;58.364;15.550;2023-05-14T09:13:53;5.45;;;3.28;;
20251;SDS011;10284;58.364;15.550;2023-05-14T09:16:18;6.38;;;3.03;;
20251;SDS011;10284;58.364;15.550;2023-05-14T09:18:44;4.80;;;2.92;;
20251;SDS011;10284;58.364;15.550;2023-05-14T09:21:12;4.20;;;2.90;;
20251;SDS011;10284;58.364;15.550;2023-05-14T09:23:40;5.15;;;2.85;;
20251;SDS011;10284;58.364;15.550;2023-05-14T09:26:06;4.38;;;2.60;;
20251;SDS011;10284;58.364;15.550;2023-05-14T09:28:31;3.78;;;2.83;;
20251;SDS011;10284;58.364;15.550;2023-05-14T09:30:57;11.13;;;3.08;;
20251;SDS011;10284;58.364;15.550;2023-05-14T09:33:25;3.88;;;2.55;;
20251;SDS011;10284;58.364;15.550;2023-05-14T09:35:54;4.15;;;2.60;;
20251;SDS011;10284;58.364;15.550;2023-05-14T09:38:22;7.78;;;2.80;;
20251;SDS011;10284;58.364;15.550;2023-05-14T09:40:51;3.42;;;2.80;;
20251;SDS011;10284;58.364;15.550;2023-05-14T09:43:17;5.50;;;2.70;;
20251;SDS011;10284;58.364;15.550;2023-05-14T09:45:42;4.53;;;3.03;;
20251;SDS011;10284;58.364;15.550;2023-05-14T09:48:08;6.13;;;2.63;;
20251;SDS011;10284;58.364;15.550;2023-05-14T09:50:40;4.40;;;2.70;;
20251;SDS011;10284;58.364;15.550;2023-05-14T09:53:06;6.07;;;2.88;;
20251;SDS011;10284;58.364;15.550;2023-05-14T09:55:32;4.85;;;3.05;;
20251;SDS011;10284;58.364;15.550;2023-05-14T09:57:57;4.60;;;2.80;;
20251;SDS011;10284;58.364;15.550;2023-05-14T10:00:23;5.15;;;3.25;;
20251;SDS011;10284;58.364;15.550;2023-05-14T10:02:48;5.55;;;2.80;;
20251;SDS011;10284;58.364;15.550;2023-05-14T10:05:15;5.30;;;2.72;;
20251;SDS011;10284;58.364;15.550;2023-05-14T10:07:43;5.88;;;2.70;;
20251;SDS011;10284;58.364;15.550;2023-05-14T10:10:12;4.07;;;2.65;;
20251;SDS011;10284;58.364;15.550;2023-05-14T10:12:40;3.78;;;2.67;;
20251;SDS011;10284;58.364;15.550;2023-05-14T10:15:07;4.50;;;2.70;;
20251;SDS011;10284;58.364;15.550;2023-05-14T10:17:36;5.88;;;2.90;;
20251;SDS011;10284;58.364;15.550;2023-05-14T10:20:04;6.72;;;3.10;;
20251;SDS011;10284;58.364;15.550;2023-05-14T10:22:32;5.00;;;2.67;;
20251;SDS011;10284;58.364;15.550;2023-05-14T10:24:59;3.00;;;2.60;;
20251;SDS011;10284;58.364;15.550;2023-05-14T10:27:25;6.50;;;2.67;;
20251;SDS011;10284;58.364;15.550;2023-05-14T10:29:51;4.47;;;2.40;;
20251;SDS011;10284;58.364;15.550;2023-05-14T10:32:18;6.97;;;2.70;;
20251;SDS011;10284;58.364;15.550;2023-05-14T10:34:51;5.10;;;2.47;;
20251;SDS011;10284;58.364;15.550;2023-05-14T10:37:19;5.32;;;2.70;;
20251;SDS011;10284;58.364;15.550;2023-05-14T10:39:48;5.57;;;2.40;;
20251;SDS011;10284;58.364;15.550;2023-05-14T10:42:21;4.88;;;2.75;;
20251;SDS011;10284;58.364;15.550;2023-05-14T10:47:16;4.43;;;2.20;;
20251;SDS011;10284;58.364;15.550;2023-05-14T10:49:43;6.68;;;2.60;;
20251;SDS011;10284;58.364;15.550;2023-05-14T10:52:09;4.60;;;2.40;;
20251;SDS011;10284;58.364;15.550;2023-05-14T10:54:36;3.40;;;2.50;;
20251;SDS011;10284;58.364;15.550;2023-05-14T10:57:01;5.63;;;2.75;;
20251;SDS011;10284;58.364;15.550;2023-05-14T10:59:27;3.28;;;2.67;;
20251;SDS011;10284;58.364;15.550;2023-05-14T11:01:52;3.67;;;2.35;;
20251;SDS011;10284;58.364;15.550;2023-05-14T11:04:18;3.58;;;2.17;;
20251;SDS011;10284;58.364;15.550;2023-05-14T11:06:45;7.60;;;2.53;;
20251;SDS011;10284;58.364;15.550;2023-05-14T11:09:11;3.72;;;2.38;;
20251;SDS011;10284;58.364;15.550;2023-05-14T11:11:37;3.72;;;2.50;;
20251;SDS011;10284;58.364;15.550;2023-05-14T11:14:03;2.47;;;2.28;;
20251;SDS011;10284;58.364;15.550;2023-05-14T11:16:29;4.40;;;2.17;;
20251;SDS011;10284;58.364;15.550;2023-05-14T11:19:01;2.47;;;2.15;;
20251;SDS011;10284;58.364;15.550;2023-05-14T11:21:28;7.82;;;2.70;;
20251;SDS011;10284;58.364;15.550;2023-05-14T11:23:55;4.30;;;2.38;;
20251;SDS011;10284;58.364;15.550;2023-05-14T11:26:20;3.90;;;2.20;;
20251;SDS011;10284;58.364;15.550;2023-05-14T11:28:47;4.88;;;2.40;;
20251;SDS011;10284;58.364;15.550;2023-05-14T11:31:13;4.20;;;1.90;;
20251;SDS011;10284;58.364;15.550;2023-05-14T11:33:38;2.45;;;1.70;;
20251;SDS011;10284;58.364;15.550;2023-05-14T11:36:04;2.25;;;1.77;;
20251;SDS011;10284;58.364;15.550;2023-05-14T11:38:30;3.10;;;2.08;;
20251;SDS011;10284;58.364;15.550;2023-05-14T11:40:56;2.80;;;2.10;;
20251;SDS011;10284;58.364;15.550;2023-05-14T11:43:23;4.20;;;2.03;;
20251;SDS011;10284;58.364;15.550;2023-05-14T11:45:52;2.35;;;1.90;;
20251;SDS011;10284;58.364;15.550;2023-05-14T11:48:18;3.88;;;2.08;;
20251;SDS011;10284;58.364;15.550;2023-05-14T11:50:47;3.42;;;1.92;;
20251;SDS011;10284;58.364;15.550;2023-05-14T11:55:53;3.70;;;1.98;;
20251;SDS011;10284;58.364;15.550;2023-05-14T11:58:19;2.75;;;1.70;;
20251;SDS011;10284;58.364;15.550;2023-05-14T12:00:45;2.33;;;1.90;;
20251;SDS011;10284;58.364;15.550;2023-05-14T12:03:14;4.25;;;2.13;;
20251;SDS011;10284;58.364;15.550;2023-05-14T12:05:39;3.35;;;2.10;;
20251;SDS011;10284;58.364;15.550;2023-05-14T12:08:18;4.20;;;2.15;;
20251;SDS011;10284;58.364;15.550;2023-05-14T12:10:46;4.03;;;2.35;;
20251;SDS011;10284;58.364;15.550;2023-05-14T12:13:14;4.50;;;2.33;;
20251;SDS011;10284;58.364;15.550;2023-05-14T12:15:43;4.22;;;2.28;;
20251;SDS011;10284;58.364;15.550;2023-05-14T12:18:09;2.83;;;2.25;;
20251;SDS011;10284;58.364;15.550;2023-05-14T12:20:35;5.20;;;2.22;;
20251;SDS011;10284;58.364;15.550;2023-05-14T12:23:00;3.20;;;2.50;;
20251;SDS011;10284;58.364;15.550;2023-05-14T12:25:26;3.00;;;1.95;;
20251;SDS011;10284;58.364;15.550;2023-05-14T12:27:51;3.28;;;2.20;;
20251;SDS011;10284;58.364;15.550;2023-05-14T12:30:17;6.00;;;2.30;;
20251;SDS011;10284;58.364;15.550;2023-05-14T12:32:42;3.55;;;2.05;;
20251;SDS011;10284;58.364;15.550;2023-05-14T12:35:08;2.28;;;2.00;;
20251;SDS011;10284;58.364;15.550;2023-05-14T12:37:33;4.32;;;2.10;;
20251;SDS011;10284;58.364;15.550;2023-05-14T12:40:02;3.28;;;2.20;;
20251;SDS011;10284;58.364;15.550;2023-05-14T12:42:28;3.28;;;2.38;;
20251;SDS011;10284;58.364;15.550;2023-05-14T12:44:54;3.72;;;2.20;;
20251;SDS011;10284;58.364;15.550;2023-05-14T12:47:20;3.63;;;2.08;;
20251;SDS011;10284;58.364;15.550;2023-05-14T12:49:45;2.35;;;2.10;;
20251;SDS011;10284;58.364;15.550;2023-05-14T12:52:11;3.13;;;1.98;;
20251;SDS011;10284;58.364;15.550;2023-05-14T12:54:36;3.47;;;2.00;;
20251;SDS011;10284;58.364;15.550;2023-05-14T12:57:04;3.50;;;2.00;;
20251;SDS011;10284;58.364;15.550;2023-05-14T12:59:29;5.68;;;2.28;;
20251;SDS011;10284;58.364;15.550;2023-05-14T13:01:55;3.55;;;2.13;;
20251;SDS011;10284;58.364;15.550;2023-05-14T13:04:20;3.85;;;2.50;;
20251;SDS011;10284;58.364;15.550;2023-05-14T13:06:46;3.13;;;2.40;;
20251;SDS011;10284;58.364;15.550;2023-05-14T13:09:11;4.40;;;2.75;;
20251;SDS011;10284;58.364;15.550;2023-05-14T13:11:37;4.30;;;2.83;;
20251;SDS011;10284;58.364;15.550;2023-05-14T13:14:02;5.32;;;2.50;;
20251;SDS011;10284;58.364;15.550;2023-05-14T13:16:28;4.65;;;2.22;;
20251;SDS011;10284;58.364;15.550;2023-05-14T13:18:54;5.70;;;2.40;;
20251;SDS011;10284;58.364;15.550;2023-05-14T13:21:19;5.45;;;2.80;;
20251;SDS011;10284;58.364;15.550;2023-05-14T13:23:45;2.55;;;2.35;;
20251;SDS011;10284;58.364;15.550;2023-05-14T13:26:11;4.60;;;2.08;;
20251;SDS011;10284;58.364;15.550;2023-05-14T13:28:37;5.70;;;2.88;;
20251;SDS011;10284;58.364;15.550;2023-05-14T13:31:03;4.90;;;2.63;;
20251;SDS011;10284;58.364;15.550;2023-05-14T13:33:33;3.00;;;2.53;;
20251;SDS011;10284;58.364;15.550;2023-05-14T13:36:00;4.50;;;2.50;;
20251;SDS011;10284;58.364;15.550;2023-05-14T13:38:25;2.35;;;2.05;;
20251;SDS011;10284;58.364;15.550;2023-05-14T13:40:51;5.38;;;2.63;;
20251;SDS011;10284;58.364;15.550;2023-05-14T13:43:16;5.32;;;2.75;;
20251;SDS011;10284;58.364;15.550;2023-05-14T13:45:42;6.00;;;2.60;;
20251;SDS011;10284;58.364;15.550;2023-05-14T13:48:07;5.30;;;2.40;;
20251;SDS011;10284;58.364;15.550;2023-05-14T13:50:32;5.15;;;3.20;;
20251;SDS011;10284;58.364;15.550;2023-05-14T13:52:58;3.58;;;2.50;;
20251;SDS011;10284;58.364;15.550;2023-05-14T13:55:23;5.10;;;2.58;;
20251;SDS011;10284;58.364;15.550;2023-05-14T13:57:49;6.72;;;2.50;;
20251;SDS011;10284;58.364;15.550;2023-05-14T14:00:14;16.98;;;3.10;;
20251;SDS011;10284;58.364;15.550;2023-05-14T14:02:40;4.38;;;2.53;;
20251;SDS011;10284;58.364;15.550;2023-05-14T14:05:05;3.28;;;2.45;;
20251;SDS011;10284;58.364;15.550;2023-05-14T14:07:31;3.85;;;2.60;;
20251;SDS011;10284;58.364;15.550;2023-05-14T14:09:56;6.90;;;2.90;;
20251;SDS011;10284;58.364;15.550;2023-05-14T14:12:23;3.95;;;2.50;;
20251;SDS011;10284;58.364;15.550;2023-05-14T14:14:50;5.60;;;2.70;;
20251;SDS011;10284;58.364;15.550;2023-05-14T14:17:16;7.05;;;2.75;;
20251;SDS011;10284;58.364;15.550;2023-05-14T14:19:41;14.27;;;3.28;;
20251;SDS011;10284;58.364;15.550;2023-05-14T14:22:07;4.25;;;2.53;;
20251;SDS011;10284;58.364;15.550;2023-05-14T14:24:32;6.95;;;2.45;;
20251;SDS011;10284;58.364;15.550;2023-05-14T14:26:58;4.88;;;2.60;;
20251;SDS011;10284;58.364;15.550;2023-05-14T14:29:23;5.70;;;2.45;;
20251;SDS011;10284;58.364;15.550;2023-05-14T14:31:48;3.88;;;2.75;;
20251;SDS011;10284;58.364;15.550;2023-05-14T14:34:14;2.55;;;2.10;;
20251;SDS011;10284;58.364;15.550;2023-05-14T14:36:39;4.03;;;2.30;;
20251;SDS011;10284;58.364;15.550;2023-05-14T14:39:05;4.43;;;2.72;;